NCAR-RAP Real-Time Weather Data

Output produced by METARs form (24 April 2018  16:12 UTC)
found at http://weather.rap.ucar.edu/surface/
 
RJFT 241200Z 31006KT 1800 SHRA BR BCFG FEW001 SCT003 BKN004 15/15 Q1004
RJFT 241135Z 29009KT 1600 SHRA BR BCFG FEW001 SCT002 BKN003 16/16 Q1004 RMK 1ST001 3ST002 6ST003 A2966 FG ALL QUAD
RJFT 241125Z 27006KT 240V310 1200 R07/P1800N SHRA BR BCFG FEW001 BKN002 BKN005 17/17 Q1004 RMK 2ST001 5ST002 6ST005 A2965 FG ALL QUAD
RJFT 241100Z 31005KT 280V350 1500 R07/P1800N SHRA BR BCFG FEW001 SCT002 BKN006 17/17 Q1003
RJFT 241035Z 32007KT 0900 R07/1100VP1800D SHRA FG FEW001 BKN002 BKN006 18/18 Q1003 RMK 1ST001 5ST002 6ST006 A2962
RJFT 241032Z 33005KT 290V040 1200 R07/1600VP1800N SHRA BR BCFG FEW001 SCT002 BKN006 18/18 Q1003 RMK 1ST001 4ST002 6ST006 A2962 FG ALL QUAD
RJFT 241000Z 02004KT 2000 SHRA BR BCFG FEW001 SCT005 BKN008 19/19 Q1002
RJFT 240937Z 34004KT 290V010 1500 R07/1700U SHRA BR BCFG FEW001 SCT002 BKN006 19/19 Q1003 RMK 2ST001 4ST002 6ST006 A2962 FG ALL QUAD
RJFT 240923Z 35006KT 0900 R07/0900VP1800U SHRA FG FEW001 SCT002 BKN004 19/19 Q1002 RMK 2ST001 3ST002 6ST004 A2961
RJFT 240915Z 35006KT 300V030 0900 R07/0800V1500U -SHRA FG FEW001 SCT002 BKN006 19/19 Q1002 RMK 2ST001 3ST002 6ST006 A2961
RJFT 240909Z 35006KT 320V030 0900 R07/0800VP1800D -SHRA FG FEW001 SCT003 BKN006 20/20 Q1002 RMK 2ST001 3ST003 6ST006 A2961
RJFT 240900Z 35005KT 0900 R07/P1800N SHRA FG FEW001 SCT003 BKN006 20/20 Q1002
RJFT 240848Z 34007KT 280V030 0600 R07/1000VP1800U +SHRA FG FEW001 SCT003 BKN006 20/20 Q1002 RMK 2ST001 3ST003 6ST006 A2961
RJFT 240840Z 02008KT 0900 R07/1000VP1800D SHRA FG FEW001 SCT003 BKN006 20/20 Q1002 RMK 2ST001 3ST003 6ST006 A2960
RJFT 240828Z 35005KT 310V020 0900 R07/1400VP1800D SHRA FG FEW001 SCT003 BKN006 20/20 Q1002 RMK 2ST001 3ST003 6ST006 A2961
RJFT 240822Z 35005KT 1500 R07/P1800N SHRA BR BCFG FEW001 SCT015 BKN025 20/20 Q1002 RMK 2ST001 3CU015 6CU025 A2961 FG ALL QUAD
RJFT 240808Z 03002KT 2000 +SHRA BR BCFG FEW001 SCT010 BKN025 20/20 Q1002 RMK 1ST001 3CU010 6CU025 A2961 FG ALL QUAD
RJFT 240800Z 04003KT 3000 SHRA BR BCFG FEW001 SCT010 BKN025 20/20 Q1002
RJFT 240735Z VRB02KT 2000 R07/1300VP1800D SHRA BR BCFG FEW001 SCT010 BKN025 20/20 Q1003 RMK 1ST001 3CU010 6CU025 A2963 FG ALL QUAD
RJFT 240732Z VRB02KT 4000 SHRA BR BCFG FEW001 SCT010 BKN030 20/20 Q1003 RMK 1ST001 3CU010 6CU030 A2963 FG ALL QUAD
RJFT 240720Z VRB02KT 5000 SHRA BR BCFG FEW001 SCT010 BKN035 20/20 Q1003 RMK 1ST001 3CU010 6CU035 A2963 FG ALL QUAD
RJFT 240700Z VRB02KT 3500 SHRA BR BCFG FEW001 BKN010 BKN020 20/20 Q1003
RJFT 240641Z VRB02KT 2500 R07/1800D SHRA BR BCFG FEW001 BKN010 BKN015 20/20 Q1004 RMK 1ST001 5CU010 6CU015 A2965 FG ALL QUAD
RJFT 240626Z 10003KT 050V180 1200 R07/P1800U SHRA BR BCFG FEW001 SCT003 BKN010 19/19 Q1004 RMK 2ST001 4ST003 6CU010 A2966 FG ALL QUAD
RJFT 240612Z 12004KT 080V160 1500 R07/P1800N -SHRA BR BCFG FEW001 SCT002 BKN004 19/19 Q1004 RMK 2ST001 4ST002 6ST004 A2967 FG ALL QUAD
RJFT 240600Z 18003KT 130V230 0900 R07/P1800N -SHRA FG FEW001 SCT002 BKN004 19/19 Q1005
RJFT 240542Z 19003KT 140V240 2000 R07/0900VP1800U SHRA BR BCFG FEW001 SCT003 BKN008 19/19 Q1005 RMK 2ST001 3ST003 6ST008 A2969 FG ALL QUAD
RJFT 240537Z 23004KT 170V320 1500 R07/0650VP1800U +SHRA BR BCFG FEW001 SCT003 BKN008 19/19 Q1005 RMK 2ST001 3ST003 6ST008 A2969 FG ALL QUAD
RJFT 240530Z 31006KT 230V350 0800 R07/0650V1600D +SHRA FG FEW001 SCT003 BKN005 19/19 Q1005 RMK 2ST001 3ST003 6ST005 A2969 RI++
RJFT 240529Z 32006KT 230V350 0800 R07/0750V1600D +SHRA FG FEW001 SCT003 BKN005 19/19 Q1005 RMK 2ST001 3ST003 6ST005 A2969 RI++
RJFT 240519Z 33005KT 230V030 0900 R07/1000VP1800N SHRA FG FEW001 SCT003 BKN005 19/19 Q1004 RMK 2ST001 3ST003 6ST005 A2966
RJFT 240513Z VRB02KT 1500 R07/1000VP1800D +SHRA BR BCFG FEW001 SCT006 BKN015 19/19 Q1005 RMK 2ST001 3ST006 6CU015 A2968 FG ALL QUAD
RJFT 240500Z VRB02KT 2000 R07/1300VP1800D SHRA BR BCFG FEW001 SCT006 BKN010 19/19 Q1005
RJFT 240450Z VRB01KT 2000 R07/0750VP1800U SHRA BR BCFG FEW001 SCT006 BKN010 19/19 Q1005 RMK 1ST001 3ST006 6CU010 A2969 FG ALL QUAD
RJFT 240441Z VRB02KT 1500 R07/0700VP1800D +SHRA BR BCFG FEW001 SCT003 BKN006 19/19 Q1005 RMK 1ST001 3ST003 6ST006 A2970 FG ALL QUAD RI++
RJFT 240439Z VRB03KT 1500 R07/0900VP1800D +SHRA BR BCFG FEW001 SCT003 BKN006 19/19 Q1006 RMK 1ST001 3ST003 6ST006 A2971 FG ALL QUAD
RJFT 240411Z 18003KT 110V250 2500 SHRA BR BCFG FEW001 SCT002 BKN003 19/19 Q1006 RMK 1ST001 3ST002 6ST003 A2972 FG ALL QUAD
RJFT 240400Z 20003KT 160V250 1500 R07/1200VP1800N SHRA BR BCFG FEW001 SCT002 BKN003 19/19 Q1006
RJFT 240349Z 21004KT 160V250 1500 R07/1100VP1800D +SHRA BR BCFG FEW001 SCT002 BKN003 19/19 Q1006 RMK 2ST001 3ST002 5ST003 A2973 FG ALL QUAD
RJFT 240339Z VRB02KT 2500 R07/1100VP1800U SHRA BR BCFG FEW001 SCT002 BKN004 FEW020CB 19/19 Q1007 RMK 2ST001 3ST002 5ST004 2CB020 A2974 CB 15KM SE AND SW MOV NE FG ALL QUAD
RJFT 240335Z VRB02KT 2500 R07/0450VP1800U SHRA BR BCFG FEW001 SCT002 BKN006 FEW020CB 19/19 Q1007 RMK 2ST001 3ST002 5ST006 2CB020 A2974 CB 15KM NE-SE MOV NE FG ALL QUAD
RJFT 240333Z VRB04KT 2000 R07/0450VP1800U SHRA BR BCFG FEW001 SCT002 BKN006 FEW020CB 19/19 Q1007 RMK 2ST001 3ST002 5ST006 2CB020 A2974 CB 10KM NE-SE MOV NE FG ALL QUAD
RJFT 240328Z 28006KT 0900 R07/0450V1600D +SHRA FG FEW001 SCT002 BKN004 BKN020CB 19/19 Q1007 RMK 2ST001 3ST002 5ST004 5CB020 A2974 CB OHD MOV NE RI++
RJFT 240325Z 28005KT 0500 R07/0450VP1800D +SHRA FG FEW001 SCT002 BKN005 BKN020CB 19/19 Q1007 RMK 2ST001 3ST002 7ST005 5CB020 A2975 CB OHD MOV NE RI++
RJFT 240324Z 28005KT 0500 R07/0550VP1800D +SHRA FG FEW001 SCT002 BKN005 BKN020CB 19/19 Q1007 RMK 2ST001 3ST002 7ST005 5CB020 A2975 CB OHD MOV NE RI++
RJFT 240314Z VRB02KT 1500 R07/1500VP1800U SHRA BR BCFG FEW001 SCT003 BKN007 FEW020CB 19/19 Q1007 RMK 1ST001 3ST003 7ST007 2CB020 A2974 CB 10KM SW-NW MOV NE FG ALL QUAD
RJFT 240308Z 25004KT 180V290 1200 R07/1400V1800U SHRA BR FEW001 SCT005 BKN008 19/19 Q1007 RMK 1ST001 3ST005 7ST008 A2974
RJFT 240300Z VRB06KT 1500 R07/1700D +SHRA BR FEW001 SCT007 BKN030 19/19 Q1007
RJFT 240229Z 10004KT 1500 R07/P1800N SHRA BR FEW001 BKN010 BKN030 19/19 Q1007 RMK 1ST001 5CU010 7CU030 A2975
RJFT 240210Z 07004KT 030V110 1500 R07/1300VP1800D +SHRA BR FEW001 BKN010 BKN030 19/19 Q1007 RMK 1ST001 5CU010 7CU030 A2976
RJFT 240200Z 07004KT 030V100 1500 R07/1000VP1800D SHRA BR FEW001 SCT010 BKN030 19/19 Q1008
RJFT 240140Z 01003KT 300V070 2500 R07/1600VP1800N SHRA BR FEW001 SCT010 BKN040 19/19 Q1008 RMK 1ST001 3CU010 7CU040 A2978
RJFT 240116Z 08004KT 1500 R07/1200VP1800D +SHRA BR FEW003 SCT025 BKN040 19/19 Q1007 RMK 1ST003 3CU025 7CU040 A2976
RJFT 240114Z 08004KT 2000 SHRA BR FEW003 SCT025 BKN040 19/19 Q1008 RMK 1ST003 3CU025 7CU040 A2977
RJFT 240104Z VRB02KT 4500 R07/0750VP1800U -SHRA BR FEW003 SCT025 BKN040 19/19 Q1008 RMK 1ST003 3CU025 7CU040 A2977
RJFT 240100Z VRB01KT 3000 R07/0650VP1800U -SHRA BR FEW003 SCT025 BKN040 19/19 Q1008
RJFT 240046Z VRB02KT 1500 R07/1300VP1800D +SHRA BR FEW003 SCT020 BKN040 19/19 Q1007 RMK 1ST003 3CU020 7CU040 A2976
RJFT 240020Z VRB02KT 2500 R07/1100VP1800U SHRA BR FEW015 SCT025 BKN040 19/19 Q1008 RMK 1CU015 3CU025 7CU040 A2977
RJFT 240010Z VRB02KT 1500 R07/1200VP1800D +SHRA BR FEW015 BKN035 19/19 Q1008 RMK 1CU015 7CU035 A2977
RJFT 240008Z VRB02KT 4000 -SHRA BR FEW025 BKN040 19/19 Q1008 RMK 1CU025 7CU040 A2977
RJFT 240000Z VRB01KT 9999 -SHRA FEW030 BKN040 BKN050 20/19 Q1008
RJFT 232300Z 21004KT 9999 -RA FEW030 BKN050 20/18 Q1008
RJFT 232200Z VRB03KT 9999 -RA FEW030 BKN050 18/18 Q1008
RJFT 232110Z 10004KT 070V170 9999 FEW030 BKN050 18/17 Q1008 RMK 1CU030 7SC050 A2979
RJFT 231200Z 05003KT 290V070 9999 FEW025 SCT070 BKN090 20/15 Q1013
RJFT 231100Z VRB02KT 9999 FEW025 SCT070 BKN120 20/16 Q1013
RJFT 231000Z 08006KT 050V110 9999 -RA FEW025 SCT040 BKN070 21/16 Q1013
RJFT 230900Z VRB01KT 9999 FEW030 SCT040 BKN080 22/16 Q1013
RJFT 230800Z VRB02KT 9999 FEW030 BKN100 BKN/// 23/15 Q1013
RJFT 230700Z 35004KT 300V040 9999 FEW030 SCT050 BKN100 23/15 Q1013
RJFT 230600Z VRB01KT 9999 FEW030 BKN050 BKN080 23/15 Q1014
RJFT 230500Z 20004KT 170V250 9999 FEW030 SCT040 BKN050 22/14 Q1015
RJFT 230400Z 27004KT 220V320 9999 FEW045 SCT070 BKN120 23/14 Q1015
RJFT 230300Z 30004KT 190V340 9999 FEW040 SCT080 BKN120 23/14 Q1016
RJFT 230200Z 22004KT 170V260 9999 FEW040 SCT080 BKN120 22/14 Q1017
RJFT 230100Z VRB02KT 9999 FEW040 SCT090 BKN160 21/14 Q1017
RJFT 230000Z VRB01KT 9999 FEW040 SCT070 BKN130 20/14 Q1017
RJFT 222300Z VRB02KT CAVOK 19/15 Q1017
RJFT 222200Z VRB01KT CAVOK 17/16 Q1017
RJFT 222110Z VRB01KT CAVOK 16/15 Q1017 RMK A3004
RJFT 221200Z 19003KT CAVOK 19/13 Q1017
RJFT 221100Z 21003KT CAVOK 19/11 Q1017
RJFT 221000Z 18004KT 9999 FEW040 BKN080 22/10 Q1017
RJFT 220900Z VRB02KT 9999 FEW040 SCT080 23/10 Q1016
RJFT 220800Z 23008KT 180V260 9999 FEW040 BKN080 24/08 Q1017
RJFT 220700Z 22008KT 180V250 9999 FEW045 25/08 Q1016
RJFT 220600Z 25010KT 9999 FEW045 26/08 Q1017
RJFT 220541Z 21010KT 9999 FEW040 26/08 Q1017 RMK 1CU040 A3004
RJFT 220500Z 32005KT 270V060 9999 FEW040 SCT/// 26/08 Q1017